This is the latest recevied weather packets stored in our database for station/object IQ8VX-3. If no packets are shown the sender has not sent any weather packets the latest 10 day(s).
| Time | Temp. | Humidity | Pressure | Rain* | Wind** | Luminosity | Snow |
|---|---|---|---|---|---|---|---|
| 1777499726 | 17.78° C | 51% | 1702.7 hPa | - | - | - | - |
| 1777498525 | 18.33° C | 51% | 1702.9 hPa | - | - | - | - |
| 1777497325 | 18.33° C | 54% | 1702.8 hPa | - | - | - | - |
| 1777496125 | 17.78° C | 58% | 1702.5 hPa | - | - | - | - |
| 1777494924 | 17.78° C | 63% | 1701.7 hPa | - | - | - | - |
| 1777493724 | 17.78° C | 69% | 1701.5 hPa | - | - | - | - |
| 1777492524 | 17.78° C | 66% | 1702 hPa | - | - | - | - |
| 1777491323 | 17.78° C | 64% | 1702.3 hPa | - | - | - | - |
| 1777490123 | 17.78° C | 66% | 1702.6 hPa | - | - | - | - |
| 1777488923 | 18.33° C | 62% | 1703.6 hPa | - | - | - | - |
| 1777487722 | 18.33° C | 64% | 1702.9 hPa | - | - | - | - |
| 1777486522 | 18.33° C | 63% | 1702.8 hPa | - | - | - | - |
| 1777485322 | 18.89° C | 57% | 1705.6 hPa | - | - | - | - |
| 1777484122 | 19.44° C | 50% | 1706.9 hPa | - | - | - | - |
| 1777482921 | 19.44° C | 52% | 1707 hPa | - | - | - | - |
| 1777481721 | 19.44° C | 54% | 1706.6 hPa | - | - | - | - |
| 1777480521 | 19.44° C | 56% | 1705.9 hPa | - | - | - | - |
| 1777479382 | 19.44° C | 57% | 1706.3 hPa | - | - | - | - |
| 1777478181 | 20.56° C | 51% | 1708.5 hPa | - | - | - | - |
| 1777476981 | 20.56° C | 51% | 1709 hPa | - | - | - | - |
| 1777475781 | 21.11° C | 50% | 1710.9 hPa | - | - | - | - |
| 1777474581 | 21.11° C | 49% | 1710.2 hPa | - | - | - | - |
| 1777473380 | 21.67° C | 46% | 1711.7 hPa | - | - | - | - |
| 1777472180 | 22.22° C | 44% | 1712.8 hPa | - | - | - | - |
| 1777470980 | 23.33° C | 44% | 1715.6 hPa | - | - | - | - |
* Rain since midnight (hover to see other rain measurements)
** Current wind speed in m/s (hover to see current wind gust speed)